Time;durP1;ratioP1;P1;durP2;ratioP2;P2;SDS_P1;SDS_P2;PMS_P1;PMS_P2;Temp;Humidity;BMP_temperature;BMP_pressure;BME280_temperature;BME280_humidity;BME280_pressure;Samples;Min_cycle;Max_cycle;Signal;HPM_P1;HPM_P2
2022/09/12 00:00:31;;;;;;;12.50;8.43;;;;;;;;;;1761809;80;21039;-65
2022/09/12 00:02:57;;;;;;;11.12;9.00;;;;;;;;;;1762305;80;21090;-65
2022/09/12 00:05:24;;;;;;;10.53;8.65;;;;;;;;;;1762150;80;21042;-65
2022/09/12 00:07:51;;;;;;;12.03;9.13;;;;;;;;;;1761230;80;21498;-65
2022/09/12 00:10:18;;;;;;;10.48;8.38;;;;;;;;;;1756313;81;21008;-65
2022/09/12 00:12:45;;;;;;;12.98;9.08;;;;;;;;;;1724927;83;21169;-65
2022/09/12 00:15:12;;;;;;;11.33;8.73;;;;;;;;;;1703253;83;21080;-65
2022/09/12 00:17:38;;;;;;;12.75;8.78;;;;;;;;;;1693926;84;21052;-65
2022/09/12 00:20:06;;;;;;;10.88;8.98;;;;;;;;;;1725177;83;21076;-65
2022/09/12 00:22:32;;;;;;;11.90;8.78;;;;;;;;;;1704746;82;21036;-64
2022/09/12 00:24:59;;;;;;;9.70;7.80;;;;;;;;;;1725003;82;21064;-65
2022/09/12 00:27:26;;;;;;;9.98;8.18;;;;;;;;;;1706311;83;21025;-65
2022/09/12 00:29:52;;;;;;;12.50;8.85;;;;;;;;;;1724573;82;21019;-64
2022/09/12 00:32:18;;;;;;;12.23;8.40;;;;;;;;;;1720056;83;21020;-65
2022/09/12 00:34:45;;;;;;;10.80;8.30;;;;;;;;;;1725440;83;21049;-65
2022/09/12 00:37:11;;;;;;;11.12;8.40;;;;;;;;;;1705077;83;21073;-65
2022/09/12 00:39:37;;;;;;;10.72;8.35;;;;;;;;;;1697306;83;21100;-65
2022/09/12 00:42:04;;;;;;;11.60;8.30;;;;;;;;;;1694935;83;21025;-65
2022/09/12 00:44:32;;;;;;;10.05;8.48;;;;;;;;;;1725007;82;21104;-65
2022/09/12 00:46:59;;;;;;;11.15;8.33;;;;;;;;;;1696579;82;21077;-65
2022/09/12 00:49:33;;;;;;;10.65;8.20;;;;;;;;;;1708565;82;21047;-65
2022/09/12 00:52:01;;;;;;;9.98;8.33;;;;;;;;;;1706680;82;21500;-65
2022/09/12 00:54:29;;;;;;;11.20;8.45;;;;;;;;;;1696817;83;21025;-65
2022/09/12 00:56:56;;;;;;;10.65;8.03;;;;;;;;;;1698079;82;21167;-65
2022/09/12 00:59:26;;;;;;;9.25;7.62;;;;;;;;;;1670697;83;21129;-65
2022/09/12 01:04:42;;;;;;;8.80;7.33;;;;;;;;;;1713582;79;21117;-64
2022/09/12 01:07:08;;;;;;;9.95;7.47;;;;;;;;;;1692302;83;21030;-65
2022/09/12 01:09:35;;;;;;;10.25;7.65;;;;;;;;;;1644355;87;21083;-65
2022/09/12 01:12:01;;;;;;;11.18;8.63;;;;;;;;;;1695516;83;21541;-64
2022/09/12 01:14:28;;;;;;;10.65;8.05;;;;;;;;;;1706211;83;21128;-65
2022/09/12 01:16:55;;;;;;;11.68;8.58;;;;;;;;;;1646757;86;21048;-65
2022/09/12 01:19:26;;;;;;;9.68;7.80;;;;;;;;;;1700670;83;21112;-64
2022/09/12 01:22:00;;;;;;;9.53;7.70;;;;;;;;;;1693004;83;21086;-65
2022/09/12 01:24:46;;;;;;;9.78;7.53;;;;;;;;;;1702499;83;21085;-66
2022/09/12 01:27:26;;;;;;;9.35;7.53;;;;;;;;;;1682517;83;21099;-65
2022/09/12 01:29:57;;;;;;;9.43;7.17;;;;;;;;;;1691992;84;21558;-64
2022/09/12 01:32:25;;;;;;;8.40;7.12;;;;;;;;;;1691939;83;21049;-64
2022/09/12 01:34:53;;;;;;;9.48;7.22;;;;;;;;;;1693421;83;21085;-65
2022/09/12 01:37:27;;;;;;;10.05;7.10;;;;;;;;;;1692570;83;21581;-65
2022/09/12 01:40:01;;;;;;;9.15;6.87;;;;;;;;;;1646084;86;21072;-66
2022/09/12 01:42:32;;;;;;;8.70;7.22;;;;;;;;;;1645195;86;21099;-65
2022/09/12 01:45:09;;;;;;;8.78;7.15;;;;;;;;;;1709880;83;21125;-65
2022/09/12 01:47:37;;;;;;;8.55;6.90;;;;;;;;;;1686667;83;21430;-66
2022/09/12 01:50:06;;;;;;;8.40;6.72;;;;;;;;;;1661354;86;21083;-65
2022/09/12 01:52:43;;;;;;;9.68;6.55;;;;;;;;;;1649739;86;21064;-65
2022/09/12 01:55:15;;;;;;;8.40;6.15;;;;;;;;;;1697653;83;21082;-65
2022/09/12 01:57:46;;;;;;;7.03;5.60;;;;;;;;;;1690723;83;21086;-64
2022/09/12 02:00:14;;;;;;;7.55;5.40;;;;;;;;;;1639390;86;21099;-64
2022/09/12 02:02:49;;;;;;;6.53;5.37;;;;;;;;;;1706735;83;21047;-64
2022/09/12 02:05:18;;;;;;;6.67;5.40;;;;;;;;;;1673889;83;21079;-64
2022/09/12 02:07:56;;;;;;;7.12;5.33;;;;;;;;;;1683119;83;20989;-64
2022/09/12 02:10:24;;;;;;;6.50;4.85;;;;;;;;;;1691472;83;21094;-64
2022/09/12 02:12:57;;;;;;;8.35;6.17;;;;;;;;;;1705246;83;21061;-65
2022/09/12 02:15:26;;;;;;;6.55;5.25;;;;;;;;;;1688289;83;21107;-65
2022/09/12 02:17:54;;;;;;;6.78;4.92;;;;;;;;;;1689260;83;21106;-65
2022/09/12 02:20:21;;;;;;;6.78;5.10;;;;;;;;;;1662231;85;21068;-66
2022/09/12 02:22:47;;;;;;;7.97;5.78;;;;;;;;;;1655010;85;21057;-66
2022/09/12 02:25:14;;;;;;;6.47;5.00;;;;;;;;;;1654853;87;21120;-66
2022/09/12 02:27:47;;;;;;;7.33;4.67;;;;;;;;;;1661451;85;21049;-65
2022/09/12 02:30:15;;;;;;;6.28;4.33;;;;;;;;;;1649260;85;21027;-66
2022/09/12 02:32:46;;;;;;;6.47;4.40;;;;;;;;;;1653307;85;21049;-65
2022/09/12 02:35:19;;;;;;;4.42;3.45;;;;;;;;;;1643608;85;21637;-64
2022/09/12 02:37:48;;;;;;;3.90;3.27;;;;;;;;;;1654484;85;21116;-65
2022/09/12 02:40:15;;;;;;;3.62;2.95;;;;;;;;;;1641118;85;21092;-65
2022/09/12 02:42:41;;;;;;;3.60;2.67;;;;;;;;;;1664690;85;21104;-66
2022/09/12 02:45:08;;;;;;;4.28;3.00;;;;;;;;;;1638328;87;21129;-65
2022/09/12 02:47:37;;;;;;;6.20;3.00;;;;;;;;;;1656476;85;21553;-65
2022/09/12 02:50:04;;;;;;;3.92;2.80;;;;;;;;;;1654508;85;21053;-65
2022/09/12 02:52:30;;;;;;;3.58;2.60;;;;;;;;;;1652671;85;21013;-66
2022/09/12 02:54:57;;;;;;;2.85;2.37;;;;;;;;;;1655702;85;21077;-66
2022/09/12 02:57:23;;;;;;;3.95;3.02;;;;;;;;;;1654305;85;21127;-66
2022/09/12 02:59:49;;;;;;;3.65;2.75;;;;;;;;;;1662588;85;21060;-66
2022/09/12 03:02:29;;;;;;;3.33;2.90;;;;;;;;;;1653868;85;21028;-65
2022/09/12 03:05:06;;;;;;;3.17;2.50;;;;;;;;;;1656307;85;21080;-66
2022/09/12 03:07:36;;;;;;;3.22;2.25;;;;;;;;;;1595817;88;21635;-65
2022/09/12 03:10:07;;;;;;;2.92;2.25;;;;;;;;;;1654103;87;21026;-65
2022/09/12 03:12:41;;;;;;;3.02;2.50;;;;;;;;;;1648830;86;22114;-65
2022/09/12 03:15:10;;;;;;;2.90;2.50;;;;;;;;;;1638836;87;21103;-64
2022/09/12 03:17:42;;;;;;;2.85;2.37;;;;;;;;;;1642925;86;21071;-65
2022/09/12 03:20:16;;;;;;;3.40;2.70;;;;;;;;;;1641400;85;21138;-65
2022/09/12 03:22:47;;;;;;;4.03;2.60;;;;;;;;;;1651516;85;21124;-65
2022/09/12 03:25:18;;;;;;;3.45;2.80;;;;;;;;;;1666849;85;21045;-64
2022/09/12 03:27:51;;;;;;;3.12;2.62;;;;;;;;;;1644707;87;21022;-64
2022/09/12 03:30:17;;;;;;;2.80;2.37;;;;;;;;;;1656333;85;21029;-65
2022/09/12 03:32:44;;;;;;;5.40;2.70;;;;;;;;;;1654945;85;21088;-66
2022/09/12 03:35:10;;;;;;;3.05;2.37;;;;;;;;;;1654626;87;21640;-64
2022/09/12 03:37:37;;;;;;;3.87;2.92;;;;;;;;;;1654256;85;21069;-65
2022/09/12 03:40:04;;;;;;;3.47;2.60;;;;;;;;;;1654760;85;22226;-65
2022/09/12 03:42:30;;;;;;;4.20;2.42;;;;;;;;;;1640057;86;21575;-65
2022/09/12 03:44:56;;;;;;;4.95;2.58;;;;;;;;;;1650998;85;21041;-64
2022/09/12 03:47:23;;;;;;;2.87;2.17;;;;;;;;;;1638549;86;21143;-64
2022/09/12 03:49:49;;;;;;;3.95;2.62;;;;;;;;;;1638365;86;22194;-66
2022/09/12 03:52:15;;;;;;;3.30;2.17;;;;;;;;;;1646049;86;20993;-66
2022/09/12 03:54:41;;;;;;;2.30;1.95;;;;;;;;;;1643186;86;21125;-65
2022/09/12 03:57:09;;;;;;;2.22;1.40;;;;;;;;;;1642219;86;21538;-64
2022/09/12 03:59:35;;;;;;;1.30;1.20;;;;;;;;;;1644052;86;21535;-65
2022/09/12 04:02:01;;;;;;;1.40;1.30;;;;;;;;;;1653794;85;21053;-64
2022/09/12 04:04:30;;;;;;;1.50;1.40;;;;;;;;;;1656205;85;21140;-64
2022/09/12 04:06:56;;;;;;;1.57;1.30;;;;;;;;;;1648125;85;21128;-64
2022/09/12 04:09:22;;;;;;;1.37;1.27;;;;;;;;;;1654189;85;21061;-63
2022/09/12 04:11:49;;;;;;;1.50;1.40;;;;;;;;;;1655998;86;21135;-64
2022/09/12 04:14:15;;;;;;;1.52;1.27;;;;;;;;;;1688272;85;21507;-64
2022/09/12 04:16:41;;;;;;;3.45;1.60;;;;;;;;;;1655759;85;21053;-65
2022/09/12 05:08:08;;;;;;;3.05;1.60;;;;;;;;;;1794941;79;23294;-65
2022/09/12 05:10:34;;;;;;;1.92;1.55;;;;;;;;;;1777528;80;21108;-64
2022/09/12 05:13:01;;;;;;;2.00;1.17;;;;;;;;;;1773303;80;21031;-64
2022/09/12 05:15:27;;;;;;;1.07;1.00;;;;;;;;;;1784947;80;21568;-65
2022/09/12 05:17:54;;;;;;;1.07;0.98;;;;;;;;;;1780161;80;21057;-64
2022/09/12 05:20:20;;;;;;;1.32;1.22;;;;;;;;;;1767783;80;21009;-65
2022/09/12 05:22:46;;;;;;;1.02;1.02;;;;;;;;;;1780837;80;21619;-65
2022/09/12 05:25:12;;;;;;;1.12;1.12;;;;;;;;;;1781625;80;21085;-65
2022/09/12 05:27:38;;;;;;;1.27;1.17;;;;;;;;;;1772117;80;21109;-64
2022/09/12 05:30:06;;;;;;;1.40;1.30;;;;;;;;;;1779415;80;21084;-64
2022/09/12 05:32:32;;;;;;;2.05;1.20;;;;;;;;;;1779263;80;21004;-64
2022/09/12 05:34:59;;;;;;;1.60;1.17;;;;;;;;;;1773125;79;21049;-65
2022/09/12 05:37:25;;;;;;;1.57;1.27;;;;;;;;;;1777471;79;22385;-65
2022/09/12 05:39:51;;;;;;;1.65;1.40;;;;;;;;;;1775073;80;21073;-65
2022/09/12 05:42:18;;;;;;;1.90;1.62;;;;;;;;;;1780403;80;21103;-64
2022/09/12 05:44:45;;;;;;;1.70;1.50;;;;;;;;;;1764870;80;21093;-64
2022/09/12 05:47:11;;;;;;;1.67;1.10;;;;;;;;;;1774907;80;21015;-64
2022/09/12 05:49:38;;;;;;;2.00;1.20;;;;;;;;;;1784139;80;21628;-64
2022/09/12 05:52:04;;;;;;;1.55;1.40;;;;;;;;;;1776818;80;21044;-65
2022/09/12 05:54:30;;;;;;;1.50;1.40;;;;;;;;;;1766887;80;21099;-64
2022/09/12 05:56:56;;;;;;;2.25;1.52;;;;;;;;;;1767681;80;21568;-65
2022/09/12 05:59:23;;;;;;;1.90;1.50;;;;;;;;;;1786348;80;21050;-65
2022/09/12 06:01:51;;;;;;;1.50;1.40;;;;;;;;;;1775107;80;21104;-65
2022/09/12 06:04:17;;;;;;;1.75;1.32;;;;;;;;;;1754161;80;20976;-65
2022/09/12 06:06:44;;;;;;;1.42;1.32;;;;;;;;;;1744170;80;21080;-65
2022/09/12 06:09:11;;;;;;;2.70;1.40;;;;;;;;;;1737986;80;21543;-65
2022/09/12 06:11:39;;;;;;;1.15;1.05;;;;;;;;;;1708472;82;21055;-65
2022/09/12 06:14:06;;;;;;;2.98;1.95;;;;;;;;;;1713513;82;21048;-64
2022/09/12 06:16:33;;;;;;;1.55;1.40;;;;;;;;;;1715886;82;21145;-65
2022/09/12 06:19:00;;;;;;;1.17;1.07;;;;;;;;;;1726116;82;21040;-64
2022/09/12 06:21:27;;;;;;;1.17;1.07;;;;;;;;;;1722665;82;21066;-65
2022/09/12 06:23:54;;;;;;;4.12;1.10;;;;;;;;;;1718448;82;21063;-65
2022/09/12 06:26:22;;;;;;;1.67;1.47;;;;;;;;;;1703150;83;21076;-65
2022/09/12 06:28:49;;;;;;;2.65;1.60;;;;;;;;;;1701906;83;21048;-65
2022/09/12 06:31:16;;;;;;;1.42;1.30;;;;;;;;;;1701958;82;21044;-65
2022/09/12 06:33:43;;;;;;;2.12;1.40;;;;;;;;;;1702541;83;21040;-65
2022/09/12 06:36:10;;;;;;;1.27;1.17;;;;;;;;;;1685011;82;21073;-66
2022/09/12 06:38:37;;;;;;;2.22;1.20;;;;;;;;;;1715019;82;21523;-65
2022/09/12 06:41:04;;;;;;;2.10;1.40;;;;;;;;;;1712156;82;21067;-66
2022/09/12 06:43:30;;;;;;;3.25;1.50;;;;;;;;;;1708956;82;21070;-65
2022/09/12 06:45:56;;;;;;;3.87;1.57;;;;;;;;;;1710251;82;21051;-64
2022/09/12 06:48:23;;;;;;;2.70;1.70;;;;;;;;;;1707358;82;21119;-65
2022/09/12 06:50:57;;;;;;;3.33;1.72;;;;;;;;;;1708588;82;21113;-65
2022/09/12 06:53:24;;;;;;;2.42;1.80;;;;;;;;;;1678031;84;21727;-65
2022/09/12 06:55:54;;;;;;;3.12;1.62;;;;;;;;;;1672549;84;21109;-65
2022/09/12 06:58:20;;;;;;;2.85;1.80;;;;;;;;;;1693707;83;21028;-65
2022/09/12 07:00:47;;;;;;;2.00;1.45;;;;;;;;;;1735794;82;21616;-66
2022/09/12 07:03:13;;;;;;;2.58;1.55;;;;;;;;;;1734305;82;21088;-64
2022/09/12 07:05:39;;;;;;;3.27;1.62;;;;;;;;;;1711874;82;20998;-65
2022/09/12 07:08:05;;;;;;;2.70;1.80;;;;;;;;;;1716315;81;21040;-65
2022/09/12 07:10:32;;;;;;;1.80;1.57;;;;;;;;;;1688240;83;22422;-63
2022/09/12 07:12:58;;;;;;;3.42;2.33;;;;;;;;;;1684884;83;21134;-64
2022/09/12 07:15:25;;;;;;;8.43;2.72;;;;;;;;;;1677607;84;21080;-64
2022/09/12 07:17:53;;;;;;;3.72;2.52;;;;;;;;;;1725871;82;21067;-61
2022/09/12 07:20:19;;;;;;;2.42;1.60;;;;;;;;;;1723005;82;21016;-66
2022/09/12 07:22:45;;;;;;;2.90;1.85;;;;;;;;;;1717973;82;21052;-66
2022/09/12 07:25:12;;;;;;;2.58;1.70;;;;;;;;;;1697167;83;21090;-67
2022/09/12 07:27:38;;;;;;;2.50;1.82;;;;;;;;;;1714308;82;21076;-65
2022/09/12 07:30:05;;;;;;;4.28;1.82;;;;;;;;;;1711807;82;21004;-64
2022/09/12 07:32:31;;;;;;;2.30;1.57;;;;;;;;;;1716940;82;22388;-64
2022/09/12 07:34:57;;;;;;;1.98;1.70;;;;;;;;;;1698940;83;21076;-64
2022/09/12 07:37:23;;;;;;;1.40;1.30;;;;;;;;;;1702779;83;21036;-64
2022/09/12 07:39:50;;;;;;;6.75;2.87;;;;;;;;;;1715241;82;21068;-65
2022/09/12 07:42:16;;;;;;;3.10;2.00;;;;;;;;;;1728990;82;21047;-64
2022/09/12 07:44:43;;;;;;;2.33;1.98;;;;;;;;;;1712820;84;21114;-64
2022/09/12 07:47:09;;;;;;;2.47;1.42;;;;;;;;;;1690872;83;21060;-65
2022/09/12 07:49:36;;;;;;;1.50;1.40;;;;;;;;;;1727059;82;21032;-66
2022/09/12 07:52:02;;;;;;;3.12;1.80;;;;;;;;;;1713128;82;21073;-65
2022/09/12 07:54:28;;;;;;;2.00;1.47;;;;;;;;;;1710754;83;21092;-66
2022/09/12 07:56:54;;;;;;;3.33;1.60;;;;;;;;;;1719537;82;21076;-66
2022/09/12 07:59:21;;;;;;;1.50;1.40;;;;;;;;;;1718048;82;21091;-66
2022/09/12 08:01:47;;;;;;;1.98;1.50;;;;;;;;;;1714363;82;21151;-66
2022/09/12 08:04:13;;;;;;;1.50;1.40;;;;;;;;;;1718321;82;21044;-66
2022/09/12 08:06:39;;;;;;;3.95;2.02;;;;;;;;;;1717288;82;21056;-66
2022/09/12 08:09:06;;;;;;;2.30;1.87;;;;;;;;;;1722644;81;21104;-66
2022/09/12 08:11:33;;;;;;;2.60;2.10;;;;;;;;;;1727212;81;21048;-66
2022/09/12 08:14:01;;;;;;;1.87;1.70;;;;;;;;;;1718965;83;21802;-66
2022/09/12 08:16:29;;;;;;;2.47;1.90;;;;;;;;;;1722665;83;21610;-66
2022/09/12 08:18:55;;;;;;;2.80;2.00;;;;;;;;;;1721382;81;21016;-66
2022/09/12 08:21:23;;;;;;;2.85;1.90;;;;;;;;;;1727509;81;21026;-66
2022/09/12 08:23:53;;;;;;;3.90;2.58;;;;;;;;;;1707299;83;21064;-67
2022/09/12 08:26:19;;;;;;;2.90;2.00;;;;;;;;;;1686965;84;21103;-65
2022/09/12 08:28:45;;;;;;;3.15;2.05;;;;;;;;;;1672209;85;21346;-65
2022/09/12 08:31:12;;;;;;;2.62;2.05;;;;;;;;;;1689902;83;21093;-63
2022/09/12 08:33:39;;;;;;;3.17;2.25;;;;;;;;;;1683125;84;21008;-64
2022/09/12 08:36:07;;;;;;;2.37;1.92;;;;;;;;;;1725957;82;21102;-65
2022/09/12 08:38:36;;;;;;;2.92;2.12;;;;;;;;;;1723786;82;21097;-64
2022/09/12 08:41:04;;;;;;;2.65;1.92;;;;;;;;;;1725448;82;21031;-63
2022/09/12 08:43:32;;;;;;;2.80;1.98;;;;;;;;;;1725839;82;22292;-63
2022/09/12 08:46:08;;;;;;;2.40;1.90;;;;;;;;;;1723091;82;21549;-65
2022/09/12 08:48:34;;;;;;;3.72;2.20;;;;;;;;;;1686815;82;21058;-63
2022/09/12 08:51:00;;;;;;;2.12;1.90;;;;;;;;;;1717373;82;21011;-63
2022/09/12 08:53:26;;;;;;;2.55;1.85;;;;;;;;;;1725581;82;21058;-63
2022/09/12 08:55:53;;;;;;;2.02;1.70;;;;;;;;;;1720283;83;21082;-64
2022/09/12 08:58:21;;;;;;;2.20;1.80;;;;;;;;;;1724903;82;21023;-64
2022/09/12 09:00:49;;;;;;;2.50;2.08;;;;;;;;;;1725638;82;21074;-63
2022/09/12 09:03:17;;;;;;;2.70;2.15;;;;;;;;;;1725673;82;21601;-63
2022/09/12 09:05:51;;;;;;;2.72;1.90;;;;;;;;;;1724057;82;21024;-63
2022/09/12 09:08:23;;;;;;;2.08;1.85;;;;;;;;;;1693147;82;21097;-65
2022/09/12 09:11:00;;;;;;;3.35;2.10;;;;;;;;;;1681685;83;21066;-63
2022/09/12 09:16:21;;;;;;;2.77;1.90;;;;;;;;;;1691769;84;21037;-63
2022/09/12 09:18:48;;;;;;;2.15;1.72;;;;;;;;;;1667749;84;21087;-63
2022/09/12 09:21:29;;;;;;;2.33;1.90;;;;;;;;;;1677991;84;21091;-64
2022/09/12 09:24:03;;;;;;;2.15;1.92;;;;;;;;;;1680247;84;21103;-64
2022/09/12 09:26:31;;;;;;;3.70;1.85;;;;;;;;;;1697170;83;21107;-64
2022/09/12 09:29:11;;;;;;;2.55;2.17;;;;;;;;;;1691287;84;21150;-65
2022/09/12 09:31:40;;;;;;;2.20;1.98;;;;;;;;;;1659308;85;21061;-70
2022/09/12 09:34:10;;;;;;;3.60;2.35;;;;;;;;;;1659876;85;21613;-69
2022/09/12 09:36:55;;;;;;;2.30;1.70;;;;;;;;;;1694927;84;21131;-69
2022/09/12 09:39:23;;;;;;;3.70;1.82;;;;;;;;;;1681335;84;21788;-70
2022/09/12 09:42:08;;;;;;;3.02;2.00;;;;;;;;;;1652514;85;21065;-71
2022/09/12 09:44:35;;;;;;;2.65;1.80;;;;;;;;;;1664611;85;21046;-69
2022/09/12 09:47:01;;;;;;;3.17;1.85;;;;;;;;;;1681593;84;22353;-64
2022/09/12 09:49:27;;;;;;;2.37;1.60;;;;;;;;;;1686886;84;21082;-64
2022/09/12 09:51:54;;;;;;;2.00;1.72;;;;;;;;;;1680302;84;21099;-64
2022/09/12 09:54:21;;;;;;;2.47;1.70;;;;;;;;;;1672285;85;21576;-65
2022/09/12 09:56:48;;;;;;;2.35;1.67;;;;;;;;;;1658693;84;21073;-66
2022/09/12 09:59:19;;;;;;;1.80;1.50;;;;;;;;;;1661268;85;21105;-66
2022/09/12 10:01:47;;;;;;;2.08;1.70;;;;;;;;;;1680883;84;21126;-65
2022/09/12 10:18:35;;;;;;;2.00;1.70;;;;;;;;;;1844594;76;22504;-66
2022/09/12 10:21:03;;;;;;;3.05;1.92;;;;;;;;;;1802519;78;20971;-65
2022/09/12 10:23:39;;;;;;;2.25;1.80;;;;;;;;;;1803470;78;21191;-66
2022/09/12 10:26:12;;;;;;;3.70;2.20;;;;;;;;;;1804729;78;21181;-66
2022/09/12 10:28:42;;;;;;;2.25;2.00;;;;;;;;;;1803544;78;21508;-67
2022/09/12 10:31:08;;;;;;;3.20;2.05;;;;;;;;;;1806207;78;22304;-65
2022/09/12 10:33:40;;;;;;;2.55;1.98;;;;;;;;;;1803408;78;21043;-65
2022/09/12 10:36:06;;;;;;;4.17;2.55;;;;;;;;;;1804898;78;21026;-65
2022/09/12 10:38:33;;;;;;;2.72;2.02;;;;;;;;;;1811621;78;21034;-64
2022/09/12 10:41:00;;;;;;;2.85;2.22;;;;;;;;;;1816281;78;21009;-64
2022/09/12 10:43:27;;;;;;;2.85;2.10;;;;;;;;;;1785213;79;20976;-65
2022/09/12 10:45:57;;;;;;;3.30;2.30;;;;;;;;;;1801193;78;21028;-66
2022/09/12 10:48:28;;;;;;;4.45;2.80;;;;;;;;;;1807082;78;20984;-66
2022/09/12 10:50:54;;;;;;;5.55;3.65;;;;;;;;;;1798858;78;21451;-66
2022/09/12 10:53:25;;;;;;;3.75;2.80;;;;;;;;;;1813062;78;21020;-65
2022/09/12 10:56:02;;;;;;;3.72;2.50;;;;;;;;;;1809298;78;21023;-66
2022/09/12 10:58:47;;;;;;;4.60;2.70;;;;;;;;;;1808032;78;21573;-66
2022/09/12 11:01:21;;;;;;;3.50;2.50;;;;;;;;;;1801785;78;21014;-66
2022/09/12 11:04:06;;;;;;;4.35;2.40;;;;;;;;;;1809352;78;21001;-67
2022/09/12 11:06:34;;;;;;;4.08;2.62;;;;;;;;;;1804931;78;20969;-69
2022/09/12 11:09:11;;;;;;;3.22;2.42;;;;;;;;;;1763066;78;20997;-67
2022/09/12 11:11:56;;;;;;;3.70;2.30;;;;;;;;;;1798679;78;21031;-66
2022/09/12 11:14:27;;;;;;;4.12;2.40;;;;;;;;;;1807930;78;21035;-65
2022/09/12 11:16:56;;;;;;;3.37;2.37;;;;;;;;;;1798626;78;21075;-66
2022/09/12 11:19:27;;;;;;;4.53;2.87;;;;;;;;;;1797999;78;20996;-64
2022/09/12 11:22:04;;;;;;;4.70;2.50;;;;;;;;;;1804769;78;20999;-65
2022/09/12 11:24:33;;;;;;;3.27;2.65;;;;;;;;;;1799574;78;21094;-65
2022/09/12 11:27:00;;;;;;;4.08;2.47;;;;;;;;;;1798479;78;21031;-66
2022/09/12 11:29:41;;;;;;;4.80;2.95;;;;;;;;;;1779192;78;21048;-66
2022/09/12 11:32:12;;;;;;;3.72;2.33;;;;;;;;;;1758860;78;21000;-67
2022/09/12 11:34:46;;;;;;;3.05;2.33;;;;;;;;;;1797390;78;21030;-66
2022/09/12 11:37:20;;;;;;;3.77;2.60;;;;;;;;;;1814194;78;20978;-66
2022/09/12 11:39:46;;;;;;;3.72;2.42;;;;;;;;;;1804528;78;21040;-65
2022/09/12 11:42:14;;;;;;;2.95;2.25;;;;;;;;;;1806355;78;21524;-65
2022/09/12 11:44:41;;;;;;;4.22;3.10;;;;;;;;;;1798023;78;21628;-66
2022/09/12 11:47:09;;;;;;;6.83;4.20;;;;;;;;;;1762719;80;21020;-65
2022/09/12 11:49:40;;;;;;;5.55;2.70;;;;;;;;;;1760167;80;21096;-65
2022/09/12 11:52:11;;;;;;;3.65;2.62;;;;;;;;;;1768142;80;21528;-66
2022/09/12 11:54:46;;;;;;;6.45;2.70;;;;;;;;;;1766141;80;21043;-65
2022/09/12 11:57:27;;;;;;;3.83;2.58;;;;;;;;;;1768777;80;21002;-68
2022/09/12 12:00:01;;;;;;;3.45;2.65;;;;;;;;;;1769208;80;20991;-66
2022/09/12 12:02:28;;;;;;;3.10;2.17;;;;;;;;;;1767924;80;21037;-66
2022/09/12 12:05:04;;;;;;;3.72;2.58;;;;;;;;;;1766852;80;21066;-66
2022/09/12 12:07:32;;;;;;;2.60;2.20;;;;;;;;;;1770841;80;21660;-66
2022/09/12 12:09:58;;;;;;;3.08;2.30;;;;;;;;;;1772300;80;21558;-66
2022/09/12 12:12:26;;;;;;;4.65;2.33;;;;;;;;;;1770145;80;21264;-67
2022/09/12 12:14:53;;;;;;;2.80;2.40;;;;;;;;;;1773136;80;21112;-69
2022/09/12 12:17:20;;;;;;;4.42;2.30;;;;;;;;;;1772258;80;21482;-67
2022/09/12 12:19:46;;;;;;;3.58;2.40;;;;;;;;;;1773788;80;20979;-66
2022/09/12 12:22:19;;;;;;;4.17;2.87;;;;;;;;;;1772622;80;20984;-66
2022/09/12 12:24:57;;;;;;;3.30;2.37;;;;;;;;;;1769219;80;21047;-65
2022/09/12 12:27:41;;;;;;;3.77;2.20;;;;;;;;;;1772878;80;21019;-65
2022/09/12 12:30:09;;;;;;;2.75;2.10;;;;;;;;;;1770617;80;21533;-65
2022/09/12 12:32:35;;;;;;;3.00;2.30;;;;;;;;;;1767488;80;21023;-65
2022/09/12 12:35:01;;;;;;;2.90;2.20;;;;;;;;;;1770119;80;21002;-65
2022/09/12 12:37:29;;;;;;;3.50;2.62;;;;;;;;;;1765745;80;21490;-66
2022/09/12 12:39:59;;;;;;;5.65;2.83;;;;;;;;;;1766746;80;21026;-67
2022/09/12 12:42:35;;;;;;;3.90;2.80;;;;;;;;;;1767078;80;21051;-66
2022/09/12 12:45:03;;;;;;;3.65;2.58;;;;;;;;;;1766002;80;21566;-65
2022/09/12 12:47:32;;;;;;;3.80;2.45;;;;;;;;;;1757153;80;21076;-66
2022/09/12 12:50:03;;;;;;;4.47;2.90;;;;;;;;;;1762468;80;21013;-65
2022/09/12 12:52:30;;;;;;;5.35;2.80;;;;;;;;;;1769019;80;21560;-66
2022/09/12 12:54:57;;;;;;;5.03;2.77;;;;;;;;;;1771666;80;21002;-66
2022/09/12 12:57:25;;;;;;;3.83;2.30;;;;;;;;;;1777997;80;21033;-65
2022/09/12 12:59:56;;;;;;;3.35;2.30;;;;;;;;;;1767955;80;21025;-66
2022/09/12 13:02:30;;;;;;;3.87;2.30;;;;;;;;;;1772292;80;21021;-66
2022/09/12 13:04:57;;;;;;;4.10;2.37;;;;;;;;;;1770230;80;21053;-66
2022/09/12 13:07:27;;;;;;;3.15;2.25;;;;;;;;;;1773441;80;21802;-66
2022/09/12 13:09:53;;;;;;;5.90;3.00;;;;;;;;;;1755102;81;21094;-66
2022/09/12 13:12:23;;;;;;;11.75;8.95;;;;;;;;;;1738615;81;21073;-67
2022/09/12 13:14:51;;;;;;;11.15;7.78;;;;;;;;;;1740777;82;21106;-66
2022/09/12 13:17:29;;;;;;;8.58;4.42;;;;;;;;;;1748553;80;21061;-68
2022/09/12 13:20:14;;;;;;;3.10;2.40;;;;;;;;;;1749435;80;21044;-64
2022/09/12 13:22:41;;;;;;;4.10;2.50;;;;;;;;;;1746535;81;21461;-66
2022/09/12 13:25:09;;;;;;;3.45;2.33;;;;;;;;;;1765484;80;21026;-66
2022/09/12 13:27:36;;;;;;;4.90;2.10;;;;;;;;;;1748888;80;21043;-67
2022/09/12 13:30:07;;;;;;;4.17;2.62;;;;;;;;;;1751541;81;21521;-66
2022/09/12 13:32:33;;;;;;;5.60;2.70;;;;;;;;;;1748654;80;21020;-67
2022/09/12 13:35:12;;;;;;;3.08;2.50;;;;;;;;;;1720558;80;21074;-66
2022/09/12 13:37:49;;;;;;;4.78;2.10;;;;;;;;;;1747640;80;20998;-65
2022/09/12 13:40:17;;;;;;;3.08;2.30;;;;;;;;;;1658597;86;21042;-66
2022/09/12 13:42:47;;;;;;;3.55;2.10;;;;;;;;;;1746853;80;21026;-66
2022/09/12 13:45:20;;;;;;;3.92;2.45;;;;;;;;;;1742575;81;21031;-66
2022/09/12 13:47:47;;;;;;;4.72;2.62;;;;;;;;;;1741199;81;21042;-66
2022/09/12 13:50:15;;;;;;;5.25;3.37;;;;;;;;;;1742052;81;21535;-67
2022/09/12 13:52:41;;;;;;;6.33;3.37;;;;;;;;;;1745807;80;21587;-68
2022/09/12 13:55:09;;;;;;;5.40;3.33;;;;;;;;;;1728205;82;20962;-66
2022/09/12 13:57:37;;;;;;;4.80;3.30;;;;;;;;;;1752098;82;21051;-66
2022/09/12 14:00:05;;;;;;;3.95;2.58;;;;;;;;;;1753624;80;20996;-66
2022/09/12 14:02:33;;;;;;;3.08;2.40;;;;;;;;;;1749192;82;21020;-67
2022/09/12 14:05:09;;;;;;;3.10;2.27;;;;;;;;;;1752698;80;21065;-67
2022/09/12 14:07:40;;;;;;;4.08;2.30;;;;;;;;;;1750408;80;21595;-67
2022/09/12 14:10:06;;;;;;;4.85;2.27;;;;;;;;;;1754409;80;21080;-67
2022/09/12 14:12:40;;;;;;;4.65;2.40;;;;;;;;;;1751816;82;21080;-67
2022/09/12 14:15:08;;;;;;;5.53;3.20;;;;;;;;;;1752473;80;21535;-68
2022/09/12 14:17:36;;;;;;;4.87;2.77;;;;;;;;;;1754244;80;21073;-67
2022/09/12 14:20:04;;;;;;;4.67;2.77;;;;;;;;;;1746221;82;22222;-67
2022/09/12 14:22:31;;;;;;;4.42;2.65;;;;;;;;;;1739108;82;21116;-66
2022/09/12 14:24:58;;;;;;;4.67;2.50;;;;;;;;;;1742689;80;21001;-67
2022/09/12 14:27:29;;;;;;;3.67;2.75;;;;;;;;;;1744326;80;21485;-67
2022/09/12 14:29:57;;;;;;;4.55;3.05;;;;;;;;;;1743257;80;20983;-66
2022/09/12 14:32:23;;;;;;;4.90;3.50;;;;;;;;;;1735887;82;21034;-66
2022/09/12 14:35:06;;;;;;;5.20;3.05;;;;;;;;;;1762200;80;21031;-66
2022/09/12 14:37:32;;;;;;;5.57;3.17;;;;;;;;;;1741554;81;21553;-66
2022/09/12 14:39:58;;;;;;;4.15;3.20;;;;;;;;;;1757351;80;22437;-66
2022/09/12 14:42:26;;;;;;;3.95;2.87;;;;;;;;;;1748033;81;20974;-66
2022/09/12 14:44:57;;;;;;;2.50;1.92;;;;;;;;;;1757318;81;21485;-66
2022/09/12 14:47:24;;;;;;;4.78;2.33;;;;;;;;;;1757804;81;20999;-67
2022/09/12 14:49:53;;;;;;;3.83;2.40;;;;;;;;;;1758227;81;21010;-66
2022/09/12 14:52:32;;;;;;;3.67;2.42;;;;;;;;;;1756448;81;21027;-66
2022/09/12 14:55:16;;;;;;;3.52;2.47;;;;;;;;;;1757577;80;21003;-65
2022/09/12 14:57:43;;;;;;;3.25;2.30;;;;;;;;;;1754000;80;22335;-66
2022/09/12 15:00:14;;;;;;;5.80;2.50;;;;;;;;;;1756112;81;20994;-65
2022/09/12 15:02:41;;;;;;;3.42;2.70;;;;;;;;;;1754759;81;21006;-66
2022/09/12 15:05:12;;;;;;;3.80;2.40;;;;;;;;;;1756287;81;21031;-65
2022/09/12 15:07:39;;;;;;;3.58;2.52;;;;;;;;;;1754899;80;21039;-65
2022/09/12 15:10:06;;;;;;;3.27;2.40;;;;;;;;;;1756856;81;21078;-65
2022/09/12 15:12:32;;;;;;;3.70;2.20;;;;;;;;;;1756116;81;20998;-65
2022/09/12 15:15:00;;;;;;;3.00;2.35;;;;;;;;;;1758987;81;20999;-65
2022/09/12 15:17:26;;;;;;;5.20;2.50;;;;;;;;;;1758768;80;22369;-65
2022/09/12 15:19:53;;;;;;;2.35;2.10;;;;;;;;;;1753736;80;21039;-66
2022/09/12 15:22:20;;;;;;;4.35;2.37;;;;;;;;;;1758581;81;21322;-65
2022/09/12 15:24:46;;;;;;;4.37;2.60;;;;;;;;;;1758578;81;21055;-65
2022/09/12 15:27:12;;;;;;;3.92;2.50;;;;;;;;;;1757487;81;20987;-65
2022/09/12 15:29:38;;;;;;;4.30;2.45;;;;;;;;;;1761723;80;20992;-66
2022/09/12 15:32:05;;;;;;;5.03;2.85;;;;;;;;;;1758812;81;20982;-65
2022/09/12 15:34:32;;;;;;;4.15;3.10;;;;;;;;;;1754547;81;21018;-66
2022/09/12 15:36:58;;;;;;;5.20;2.87;;;;;;;;;;1756788;81;20999;-67
2022/09/12 15:39:24;;;;;;;3.25;2.52;;;;;;;;;;1760217;80;22284;-66
2022/09/12 15:41:50;;;;;;;3.42;2.47;;;;;;;;;;1757828;80;21031;-67
2022/09/12 15:44:16;;;;;;;4.90;2.90;;;;;;;;;;1758067;81;21050;-67
2022/09/12 15:46:42;;;;;;;5.42;3.08;;;;;;;;;;1758800;81;21007;-66
2022/09/12 15:49:09;;;;;;;7.08;3.70;;;;;;;;;;1758196;80;21506;-65
2022/09/12 15:51:35;;;;;;;8.98;4.25;;;;;;;;;;1758037;80;21550;-66
2022/09/12 15:54:03;;;;;;;9.10;5.22;;;;;;;;;;1757846;81;20990;-66
2022/09/12 16:08:56;;;;;;;4.58;3.50;;;;;;;;;;1814466;77;23001;-63
2022/09/12 16:11:22;;;;;;;8.13;2.92;;;;;;;;;;1814944;78;21578;-66
2022/09/12 16:13:48;;;;;;;3.55;2.92;;;;;;;;;;1819227;78;21008;-63